createdAt,value
2023-02-05T00:01:23.611Z,80.65
2023-02-05T00:03:50.315Z,80.58
2023-02-05T00:06:16.927Z,80.83
2023-02-05T00:08:44.375Z,80.82
2023-02-05T00:11:12.737Z,81.00
2023-02-05T00:13:41.989Z,80.79
2023-02-05T00:16:14.304Z,81.20
2023-02-05T00:18:40.971Z,81.00
2023-02-05T00:21:07.961Z,81.54
2023-02-05T00:23:34.993Z,81.35
2023-02-05T00:26:02.956Z,81.67
2023-02-05T00:28:36.259Z,81.46
2023-02-05T00:31:08.345Z,81.88
2023-02-05T00:33:35.302Z,82.04
2023-02-05T00:36:02.357Z,82.39
2023-02-05T00:38:29.220Z,82.24
2023-02-05T00:40:56.271Z,82.33
2023-02-05T00:43:23.089Z,81.96
2023-02-05T00:45:49.655Z,81.82
2023-02-05T00:48:16.429Z,81.98
2023-02-05T00:50:43.130Z,82.14
2023-02-05T00:53:10.585Z,82.19
2023-02-05T00:55:37.337Z,82.62
2023-02-05T00:58:04.145Z,82.59
2023-02-05T01:00:32.163Z,82.64
2023-02-05T01:03:00.543Z,82.91
2023-02-05T01:05:27.638Z,82.64
2023-02-05T01:07:54.340Z,83.01
2023-02-05T01:10:21.145Z,83.44
2023-02-05T01:12:50.910Z,83.26
2023-02-05T01:15:18.001Z,83.08
2023-02-05T01:17:44.597Z,83.06
2023-02-05T01:20:12.633Z,82.94
2023-02-05T01:22:39.591Z,82.73
2023-02-05T01:25:06.753Z,82.69
2023-02-05T01:27:33.655Z,82.91
2023-02-05T01:30:00.599Z,83.01
2023-02-05T01:32:28.168Z,83.13
2023-02-05T01:34:55.072Z,83.07
2023-02-05T01:37:22.140Z,83.29
2023-02-05T01:39:50.558Z,83.64
2023-02-05T01:42:25.936Z,83.77
2023-02-05T01:45:21.015Z,83.69
2023-02-05T01:47:56.281Z,83.87
2023-02-05T01:50:32.592Z,83.81
2023-02-05T01:53:03.097Z,83.81
2023-02-05T01:55:29.723Z,83.70
2023-02-05T01:57:56.664Z,83.69
2023-02-05T02:00:23.385Z,83.85
2023-02-05T02:02:50.228Z,83.98
2023-02-05T02:05:17.351Z,83.84
2023-02-05T02:07:44.114Z,84.01
2023-02-05T02:10:12.957Z,84.10
2023-02-05T02:12:40.839Z,84.36
2023-02-05T02:15:10.604Z,84.47
2023-02-05T02:17:39.458Z,84.44
2023-02-05T02:20:08.566Z,84.00
2023-02-05T02:22:54.030Z,83.91
2023-02-05T02:25:28.463Z,83.99
2023-02-05T02:27:55.434Z,84.24
2023-02-05T02:30:33.735Z,84.14
2023-02-05T02:33:08.864Z,84.24
2023-02-05T02:35:52.276Z,84.67
2023-02-05T02:38:29.991Z,85.00
2023-02-05T02:41:04.613Z,84.92
2023-02-05T02:43:37.584Z,84.89
2023-02-05T02:46:09.450Z,84.73
2023-02-05T02:48:37.637Z,84.85
2023-02-05T02:51:05.786Z,84.83
2023-02-05T02:53:38.047Z,84.68
2023-02-05T02:56:04.978Z,84.62
2023-02-05T02:58:36.760Z,84.66
2023-02-05T03:01:04.343Z,84.55
2023-02-05T03:03:31.886Z,84.44
2023-02-05T03:05:58.602Z,84.60
2023-02-05T03:08:33.653Z,84.72
2023-02-05T03:11:02.665Z,84.60
2023-02-05T03:13:31.710Z,84.19
2023-02-05T03:16:00.112Z,84.40
2023-02-05T03:18:26.958Z,84.22
2023-02-05T03:20:57.559Z,83.94
2023-02-05T03:23:25.934Z,84.04
2023-02-05T03:25:52.828Z,83.84
2023-02-05T03:28:22.746Z,83.93
2023-02-05T03:31:17.140Z,84.38
2023-02-05T03:33:50.764Z,84.30
2023-02-05T03:36:37.243Z,84.51
2023-02-05T03:39:08.478Z,84.16
2023-02-05T03:41:56.479Z,84.44
2023-02-05T03:45:05.070Z,84.46
2023-02-05T03:47:37.302Z,84.34
2023-02-05T03:50:17.485Z,84.26
2023-02-05T03:52:56.829Z,83.92
2023-02-05T03:55:27.586Z,84.20
2023-02-05T03:58:02.033Z,84.20
2023-02-05T04:00:31.201Z,84.12
2023-02-05T04:02:58.581Z,83.95
2023-02-05T04:05:28.982Z,84.01
2023-02-05T04:07:55.856Z,84.21
2023-02-05T04:10:26.740Z,84.66
2023-02-05T04:12:54.140Z,84.46
2023-02-05T04:15:21.310Z,84.65
2023-02-05T04:17:51.099Z,84.50
2023-02-05T04:20:18.364Z,84.45
2023-02-05T04:22:45.093Z,84.07
2023-02-05T04:25:14.045Z,84.08
2023-02-05T04:27:40.819Z,83.91
2023-02-05T04:30:08.472Z,84.07
2023-02-05T04:32:37.763Z,84.23
2023-02-05T04:35:05.072Z,84.27
2023-02-05T04:37:31.830Z,84.38
2023-02-05T04:39:59.057Z,84.58
2023-02-05T04:42:26.203Z,84.23
2023-02-05T04:44:53.897Z,84.26
2023-02-05T04:47:20.542Z,84.17
2023-02-05T04:49:47.395Z,84.30
2023-02-05T04:52:13.952Z,84.79
2023-02-05T04:54:40.818Z,84.63
2023-02-05T04:57:07.700Z,84.47
2023-02-05T04:59:34.405Z,85.10
2023-02-05T05:02:01.011Z,85.26
2023-02-05T05:04:27.849Z,84.98
2023-02-05T05:06:54.886Z,85.46
2023-02-05T05:09:23.559Z,85.84
2023-02-05T05:11:53.143Z,85.60
2023-02-05T05:14:19.848Z,85.74
2023-02-05T05:16:48.297Z,85.44
2023-02-05T05:19:15.266Z,85.54
2023-02-05T05:21:41.881Z,85.93
2023-02-05T05:24:08.505Z,85.87
2023-02-05T05:26:35.510Z,85.83
2023-02-05T05:29:02.192Z,85.88
2023-02-05T05:31:28.971Z,86.13
2023-02-05T05:33:55.801Z,86.13
2023-02-05T05:36:22.511Z,85.99
2023-02-05T05:38:49.202Z,86.30
2023-02-05T05:41:37.639Z,86.76
2023-02-05T05:44:04.401Z,86.22
2023-02-05T05:46:31.277Z,86.30
2023-02-05T05:48:59.273Z,86.32
2023-02-05T05:51:27.031Z,86.63
2023-02-05T05:53:54.455Z,86.22
2023-02-05T05:56:21.245Z,86.77
2023-02-05T05:58:48.564Z,87.09
2023-02-05T06:01:16.539Z,87.02
2023-02-05T06:03:43.238Z,87.05
2023-02-05T06:06:10.077Z,86.90
2023-02-05T06:08:36.926Z,86.97
2023-02-05T06:11:03.845Z,87.13
2023-02-05T06:13:31.576Z,87.02
2023-02-05T06:15:58.246Z,87.17
2023-02-05T06:18:25.980Z,87.12
2023-02-05T06:20:52.961Z,86.76
2023-02-05T06:23:19.528Z,86.90
2023-02-05T06:25:46.653Z,86.66
2023-02-05T06:28:13.241Z,86.94
2023-02-05T06:30:40.466Z,87.18
2023-02-05T06:33:07.253Z,86.94
2023-02-05T06:35:35.034Z,87.13
2023-02-05T06:38:02.006Z,87.03
2023-02-05T06:40:30.025Z,87.05
2023-02-05T06:42:56.704Z,86.85
2023-02-05T06:45:24.093Z,86.77
2023-02-05T06:47:52.744Z,86.89
2023-02-05T06:50:20.351Z,86.36
2023-02-05T06:52:47.485Z,86.17
2023-02-05T06:55:14.266Z,86.43
2023-02-05T06:57:40.919Z,86.42
2023-02-05T07:00:08.421Z,86.19
2023-02-05T07:02:35.332Z,86.07
2023-02-05T07:05:02.935Z,85.80
2023-02-05T07:07:30.024Z,85.69
2023-02-05T07:09:57.328Z,85.70
2023-02-05T07:12:24.789Z,85.76
2023-02-05T07:14:51.780Z,85.67
2023-02-05T07:17:20.386Z,85.50
2023-02-05T07:19:47.014Z,85.00
2023-02-05T07:22:14.971Z,84.63
2023-02-05T07:24:41.861Z,84.56
2023-02-05T07:27:09.467Z,84.70
2023-02-05T07:29:36.190Z,84.85
2023-02-05T07:32:03.244Z,84.57
2023-02-05T07:34:30.154Z,84.21
2023-02-05T07:36:56.848Z,83.87
2023-02-05T07:39:23.478Z,83.70
2023-02-05T07:41:50.802Z,83.45
2023-02-05T07:44:21.825Z,83.38
2023-02-05T07:46:48.553Z,83.34
2023-02-05T07:49:15.202Z,82.99
2023-02-05T07:51:42.236Z,82.72
2023-02-05T07:54:09.710Z,82.81
2023-02-05T07:56:36.801Z,83.10
2023-02-05T07:59:03.877Z,82.94
2023-02-05T08:01:31.433Z,82.91
2023-02-05T08:03:58.134Z,82.39
2023-02-05T08:06:25.153Z,82.54
2023-02-05T08:08:51.932Z,82.56
2023-02-05T08:11:18.692Z,82.04
2023-02-05T08:13:48.476Z,81.88
2023-02-05T08:16:15.663Z,81.44
2023-02-05T08:18:43.040Z,81.43
2023-02-05T08:21:09.680Z,80.90
2023-02-05T08:23:36.380Z,80.37
2023-02-05T08:26:03.584Z,79.78
2023-02-05T08:28:30.505Z,79.73
2023-02-05T08:30:58.142Z,79.04
2023-02-05T08:33:25.007Z,79.02
2023-02-05T08:35:51.710Z,78.78
2023-02-05T08:38:18.760Z,77.85
2023-02-05T08:40:46.228Z,77.42
2023-02-05T08:43:13.645Z,77.12
2023-02-05T08:45:40.658Z,76.76
2023-02-05T08:48:07.329Z,76.48
2023-02-05T08:50:34.495Z,76.61
2023-02-05T08:53:01.478Z,76.52
2023-02-05T08:55:28.232Z,76.46
2023-02-05T08:57:55.369Z,76.48
2023-02-05T09:00:22.228Z,75.88
2023-02-05T09:02:48.920Z,75.31
2023-02-05T09:05:16.738Z,75.15
2023-02-05T09:07:43.474Z,74.96
2023-02-05T09:10:14.115Z,74.31
2023-02-05T09:12:41.524Z,74.44
2023-02-05T09:15:09.207Z,74.33
2023-02-05T09:17:36.518Z,74.74
2023-02-05T09:20:03.717Z,74.99
2023-02-05T09:22:31.196Z,75.06
2023-02-05T09:24:58.128Z,75.11
2023-02-05T09:27:24.912Z,75.71
2023-02-05T09:29:52.687Z,75.82
2023-02-05T09:32:19.911Z,75.96
2023-02-05T09:34:48.479Z,76.54
2023-02-05T09:37:16.499Z,76.27
2023-02-05T09:42:38.753Z,75.24
2023-02-05T09:45:35.579Z,74.21
2023-02-05T09:48:49.081Z,73.57
2023-02-05T09:51:18.279Z,73.03
2023-02-05T09:53:48.732Z,72.59
2023-02-05T09:56:15.736Z,72.42
2023-02-05T09:58:47.650Z,71.55
2023-02-05T10:01:28.850Z,70.73
2023-02-05T10:03:57.613Z,70.30
2023-02-05T10:06:46.376Z,68.58
2023-02-05T10:09:42.704Z,66.24
2023-02-05T10:12:13.322Z,64.74
2023-02-05T13:26:25.649Z,87.69
2023-02-05T13:29:06.298Z,86.45
2023-02-05T13:31:39.931Z,86.28
2023-02-05T13:34:07.779Z,86.51
2023-02-05T13:36:37.699Z,86.02
2023-02-05T13:39:16.973Z,85.93
2023-02-05T13:42:05.870Z,86.51
2023-02-05T13:44:47.728Z,86.91
2023-02-05T13:47:31.585Z,87.09
2023-02-05T13:50:22.834Z,87.19
2023-02-05T13:52:52.535Z,87.10
2023-02-05T13:55:41.570Z,86.81
2023-02-05T13:58:11.420Z,86.94
2023-02-05T14:00:40.298Z,86.85
2023-02-05T14:03:09.058Z,86.76
2023-02-05T14:05:38.131Z,87.29
2023-02-05T14:08:05.352Z,87.91
2023-02-05T14:10:37.096Z,88.39
2023-02-05T14:13:17.814Z,88.81
2023-02-05T14:15:45.264Z,89.06
2023-02-05T14:18:32.427Z,88.96
2023-02-05T14:20:59.437Z,89.77
2023-02-05T14:23:45.014Z,89.97
2023-02-05T14:26:14.395Z,90.63
2023-02-05T14:28:51.190Z,91.25
2023-02-05T14:31:45.291Z,91.68
2023-02-05T14:34:31.217Z,92.62
2023-02-05T14:37:00.109Z,93.04
2023-02-05T14:39:29.699Z,93.21
2023-02-05T14:41:58.713Z,94.30
2023-02-05T14:44:32.410Z,94.81
2023-02-05T14:47:20.953Z,94.94
2023-02-05T14:49:48.917Z,95.94
2023-02-05T14:52:33.829Z,96.25
2023-02-05T14:55:04.963Z,96.23
2023-02-05T14:57:46.023Z,96.32
2023-02-05T15:00:29.234Z,96.34
2023-02-05T15:03:01.786Z,96.68
2023-02-05T15:05:46.276Z,97.10
2023-02-05T15:08:16.305Z,97.67
2023-02-05T15:10:44.752Z,98.13
2023-02-05T15:13:13.843Z,97.97
2023-02-05T15:16:07.350Z,98.32
2023-02-05T15:18:39.541Z,98.37
2023-02-05T15:21:07.209Z,98.35
2023-02-05T15:23:42.465Z,98.31
2023-02-05T15:26:22.283Z,98.31
2023-02-05T15:29:03.342Z,98.48
2023-02-05T15:32:16.527Z,99.36
2023-02-05T15:34:54.242Z,99.94
2023-02-05T15:37:42.799Z,99.98
2023-02-05T15:40:20.001Z,99.80
2023-02-05T15:42:48.938Z,99.92
2023-02-05T15:45:28.725Z,99.15
2023-02-05T15:48:06.646Z,99.20
2023-02-05T15:50:34.499Z,98.81
2023-02-05T15:53:01.287Z,98.42
2023-02-05T15:55:28.551Z,98.56
2023-02-05T15:58:02.334Z,98.68
2023-02-05T16:00:29.827Z,98.65
2023-02-05T16:03:00.753Z,98.51
2023-02-05T16:05:28.755Z,98.65
2023-02-05T16:07:56.982Z,98.29
2023-02-05T16:10:28.328Z,98.45
2023-02-05T16:13:04.890Z,98.58
2023-02-05T16:15:46.502Z,98.76
2023-02-05T16:18:38.459Z,98.65
2023-02-05T16:21:16.755Z,98.35
2023-02-05T16:23:45.364Z,98.09
2023-02-05T16:26:23.971Z,97.86
2023-02-05T16:28:56.740Z,97.66
2023-02-05T16:31:24.163Z,97.92
2023-02-05T16:33:55.577Z,97.98
2023-02-05T16:36:33.013Z,97.58
2023-02-05T16:39:01.526Z,97.41
2023-02-05T16:41:34.304Z,96.92
2023-02-05T16:44:03.279Z,96.62
2023-02-05T16:46:30.819Z,96.60
2023-02-05T16:49:21.200Z,96.18
2023-02-05T16:51:50.472Z,95.87
2023-02-05T16:54:17.231Z,95.87
2023-02-05T16:56:47.540Z,95.68
2023-02-05T16:59:30.081Z,95.87
2023-02-05T17:01:58.917Z,95.54
2023-02-05T17:04:31.802Z,95.15
2023-02-05T17:07:00.662Z,94.36
2023-02-05T17:09:31.742Z,94.21
2023-02-05T17:12:20.806Z,93.79
2023-02-05T17:15:09.526Z,93.12
2023-02-05T17:17:45.062Z,92.78
2023-02-05T17:20:14.739Z,92.40
2023-02-05T17:23:00.065Z,91.63
2023-02-05T17:25:27.290Z,90.12
2023-02-05T17:27:54.486Z,90.16
2023-02-05T17:30:21.214Z,90.16
2023-02-05T17:32:49.955Z,89.71
2023-02-05T17:35:17.484Z,89.45
2023-02-05T17:37:44.327Z,88.76
2023-02-05T17:40:11.857Z,88.31
2023-02-05T17:42:39.112Z,87.66
2023-02-05T17:45:26.205Z,86.74
2023-02-05T17:47:52.836Z,85.56
2023-02-05T17:50:19.747Z,84.81
2023-02-05T17:52:46.460Z,83.52
2023-02-05T17:55:14.374Z,82.58
2023-02-05T17:57:42.429Z,82.36
2023-02-05T18:00:18.249Z,81.24
2023-02-05T18:02:45.134Z,80.50
2023-02-05T18:05:11.907Z,80.87
2023-02-05T18:07:54.307Z,80.43
2023-02-05T18:10:24.401Z,79.99
2023-02-05T18:12:51.484Z,79.93
2023-02-05T18:15:18.402Z,80.34
2023-02-05T18:17:45.538Z,79.92
2023-02-05T18:20:13.142Z,79.39
2023-02-05T18:22:40.942Z,79.50
2023-02-05T18:25:07.995Z,79.58
2023-02-05T18:27:34.654Z,79.63
2023-02-05T18:30:01.595Z,79.48
2023-02-05T18:32:28.516Z,79.52
2023-02-05T18:34:55.416Z,79.97
2023-02-05T18:37:22.093Z,80.55
2023-02-05T18:39:48.985Z,80.58
2023-02-05T18:42:15.871Z,80.23
2023-02-05T18:44:42.726Z,80.27
2023-02-05T18:47:10.769Z,80.42
2023-02-05T18:49:37.612Z,80.41
2023-02-05T18:52:05.698Z,80.60
2023-02-05T18:54:32.494Z,80.99
2023-02-05T18:56:59.415Z,80.99
2023-02-05T18:59:26.289Z,81.41
2023-02-05T19:01:53.106Z,81.73
2023-02-05T19:04:20.391Z,81.68
2023-02-05T19:06:52.798Z,81.81
2023-02-05T19:09:21.111Z,82.15
2023-02-05T19:11:48.442Z,82.19
2023-02-05T19:14:16.782Z,82.37
2023-02-05T19:16:43.489Z,82.55
2023-02-05T19:19:20.121Z,82.07
2023-02-05T19:21:50.035Z,81.85
2023-02-05T20:04:06.398Z,81.39
2023-02-05T20:06:33.331Z,80.41
2023-02-05T20:09:01.664Z,79.93
2023-02-05T20:11:30.551Z,79.83
2023-02-05T20:14:01.067Z,79.79
2023-02-05T20:16:29.499Z,79.63
2023-02-05T20:18:58.092Z,79.63
2023-02-05T20:21:25.986Z,79.65
2023-02-05T20:23:53.084Z,79.69
2023-02-05T20:26:21.524Z,80.21
2023-02-05T20:29:11.511Z,80.28
2023-02-05T20:31:43.097Z,80.49
2023-02-05T20:34:18.640Z,80.61
2023-02-05T20:36:48.584Z,80.88
2023-02-05T20:39:17.034Z,80.59
2023-02-05T20:41:44.896Z,80.14
2023-02-05T20:44:11.595Z,80.46
2023-02-05T20:46:38.164Z,80.51
2023-02-05T20:49:05.015Z,80.69
2023-02-05T20:51:31.914Z,81.03
2023-02-05T20:53:58.659Z,80.95
2023-02-05T20:56:26.814Z,80.89
2023-02-05T20:58:59.516Z,80.53
2023-02-05T21:01:26.529Z,80.86
2023-02-05T21:03:54.868Z,80.89
2023-02-05T21:06:22.334Z,80.41
2023-02-05T21:08:50.289Z,80.51
2023-02-05T21:11:17.357Z,80.24
2023-02-05T21:13:45.247Z,80.36
2023-02-05T21:16:12.800Z,79.97
2023-02-05T21:18:40.262Z,79.93
2023-02-05T21:21:08.602Z,79.86
2023-02-05T21:23:35.465Z,80.06
2023-02-05T21:26:02.286Z,79.84
2023-02-05T21:28:29.269Z,80.27
2023-02-05T21:31:03.674Z,80.57
2023-02-05T21:33:30.539Z,80.26
2023-02-05T21:35:57.355Z,80.13
2023-02-05T21:38:24.296Z,80.23
2023-02-05T21:40:51.214Z,80.36
2023-02-05T21:43:17.787Z,80.15
2023-02-05T21:45:44.764Z,80.24
2023-02-05T21:48:11.466Z,80.10
2023-02-05T21:50:39.742Z,80.18
2023-02-05T21:53:06.471Z,80.08
2023-02-05T21:55:33.506Z,80.04
2023-02-05T21:58:00.253Z,80.23
2023-02-05T22:00:26.850Z,80.47
2023-02-05T22:02:53.640Z,80.03
2023-02-05T22:05:20.389Z,79.93
2023-02-05T22:07:47.013Z,80.00
2023-02-05T22:10:14.554Z,80.33
2023-02-05T22:12:41.316Z,80.75
2023-02-05T22:15:12.802Z,80.72
2023-02-05T22:17:39.846Z,81.01
2023-02-05T22:20:08.635Z,81.03
2023-02-05T22:22:36.128Z,81.25
2023-02-05T22:25:03.792Z,81.61
2023-02-05T22:27:31.462Z,82.03
2023-02-05T22:29:58.056Z,82.80
2023-02-05T22:32:25.350Z,83.66
2023-02-05T22:34:52.971Z,84.19
2023-02-05T22:37:19.601Z,84.66
2023-02-05T22:39:47.296Z,84.63
2023-02-05T22:42:13.889Z,84.51
2023-02-05T22:44:40.511Z,84.82
2023-02-05T22:47:07.316Z,84.98
2023-02-05T22:49:34.082Z,84.82
2023-02-05T22:52:01.822Z,85.08
2023-02-05T22:54:28.714Z,85.37
2023-02-05T22:56:55.261Z,85.47
2023-02-05T22:59:21.868Z,85.28
2023-02-05T23:01:48.728Z,85.71
2023-02-05T23:04:15.576Z,86.15
2023-02-05T23:06:42.672Z,86.30
2023-02-05T23:09:12.907Z,86.41
2023-02-05T23:11:39.666Z,86.08
2023-02-05T23:14:06.734Z,86.33
2023-02-05T23:16:36.326Z,86.51
2023-02-05T23:19:05.953Z,86.81
2023-02-05T23:21:33.818Z,86.48
2023-02-05T23:24:00.597Z,86.50
2023-02-05T23:26:31.743Z,86.95
2023-02-05T23:28:58.896Z,87.67
2023-02-05T23:31:25.799Z,88.31
2023-02-05T23:33:52.638Z,88.18
2023-02-05T23:36:19.242Z,88.52
2023-02-05T23:38:46.192Z,89.03
2023-02-05T23:41:12.766Z,89.37
2023-02-05T23:43:39.556Z,89.23
2023-02-05T23:46:06.627Z,89.67
2023-02-05T23:48:33.964Z,89.89
2023-02-05T23:51:01.223Z,90.58
2023-02-05T23:53:28.109Z,90.63
2023-02-05T23:55:54.971Z,90.95
2023-02-05T23:58:25.161Z,91.32
